Estación Meteorológica Peña el Pijo (Robertgarden) [ 12/11/19 23:06:15 CET ]

Fecha Hora Presion(HPa) Temp (°C) Humedad % Rocio (°C) Viento ( m/s) Direccion Lluvia 1Hora(mm) Lluvia 24H(mm) LLuvia Total(mm)
2019-Sep-01 01:01:40 1011.500 15.9 73 11.1         385.10
2019-Sep-01 02:01:57 1011.500 15.8 74 11.2         385.10
2019-Sep-01 03:01:42 1010.800 15.5 75 11.1         385.10
2019-Sep-01 04:01:44 1010.400 14.6 75 10.2         385.10
2019-Sep-01 05:01:48 1010.200 13.4 78 9.6         385.10
2019-Sep-01 06:01:42 1010.000 13.4 80 10.0         385.10
2019-Sep-01 07:01:43 1010.200 13.6 80 10.2         385.10
2019-Sep-01 08:01:51 1010.400 13.5 79 9.9         385.10
2019-Sep-01 09:01:45 1010.400 17.1 76 12.8         385.10
2019-Sep-01 10:01:42 1010.100 23.9 61 15.9         385.10
2019-Sep-01 11:01:56 1010.100 27.9 45 14.8         385.10
2019-Sep-01 12:01:50 1010.300 30.6 36 13.8         385.10
2019-Sep-01 13:01:56 1009.800 32.4 31 13.1         385.10
2019-Sep-01 14:01:56 1009.300 34.4 26 11.9         385.10
2019-Sep-01 15:01:48 1009.200 30.3 33 12.2         385.10
2019-Sep-01 16:01:35 1008.700 31.2 32 12.5         385.10
2019-Sep-01 17:01:43 1008.600 27.6 40 12.8         385.10
2019-Sep-01 18:01:45 1008.700 26.9 42 12.9         385.10
2019-Sep-01 19:01:53 1008.700 27.9 40 13.1 1.5 W     385.10
2019-Sep-01 20:01:53 1009.000 26.0 45 13.1         385.10
2019-Sep-01 21:01:48 1009.300 22.1 57 13.1         385.10
2019-Sep-01 22:01:45 1009.700 20.3 63 13.0         385.10
2019-Sep-01 23:01:56 1010.000 18.9 67 12.6         385.10

Temperatura Máxima:34°    Temperatura Mínima:13°
Presión Máxima:1011.500 Hpa    Presión Mínima:1008.600 Hpa


Volver